Time;durP1;ratioP1;P1;durP2;ratioP2;P2;SDS_P1;SDS_P2;PMS_P1;PMS_P2;Temp;Humidity;BMP_temperature;BMP_pressure;BME280_temperature;BME280_humidity;BME280_pressure;Samples;Min_cycle;Max_cycle;Signal;HPM_P1;HPM_P2
2024/04/21 00:00:43;;;;;;;5.68;2.08;;;;;;;;;;5110752;27;20027;-80
2024/04/21 00:03:09;;;;;;;6.30;2.20;;;;;;;;;;5116118;27;20005;-81
2024/04/21 00:05:35;;;;;;;4.10;2.13;;;;;;;;;;5078783;27;20033;-81
2024/04/21 00:08:00;;;;;;;4.07;2.00;;;;;;;;;;5129039;27;20009;-80
2024/04/21 00:10:26;;;;;;;4.15;1.98;;;;;;;;;;5098163;28;20020;-81
2024/04/21 00:12:52;;;;;;;3.70;1.90;;;;;;;;;;5083322;28;20032;-81
2024/04/21 00:15:17;;;;;;;4.35;1.90;;;;;;;;;;5120023;27;20066;-81
2024/04/21 00:17:44;;;;;;;3.72;1.83;;;;;;;;;;5157595;27;20005;-80
2024/04/21 00:20:10;;;;;;;5.10;2.00;;;;;;;;;;5107557;28;20010;-80
2024/04/21 00:22:36;;;;;;;3.70;1.65;;;;;;;;;;5080592;27;20009;-79
2024/04/21 00:25:02;;;;;;;3.97;1.70;;;;;;;;;;5119634;27;20009;-81
2024/04/21 00:27:27;;;;;;;5.97;1.70;;;;;;;;;;5146868;27;20016;-81
2024/04/21 00:29:53;;;;;;;3.88;1.75;;;;;;;;;;5101995;27;20002;-80
2024/04/21 00:32:18;;;;;;;3.85;1.60;;;;;;;;;;5114485;27;20366;-81
2024/04/21 00:34:44;;;;;;;2.92;1.40;;;;;;;;;;5126627;27;20573;-80
2024/04/21 00:37:10;;;;;;;3.03;1.35;;;;;;;;;;5149883;27;20062;-80
2024/04/21 00:39:35;;;;;;;3.35;1.58;;;;;;;;;;5088509;27;20016;-79
2024/04/21 00:42:01;;;;;;;5.20;1.88;;;;;;;;;;5124818;27;20027;-78
2024/04/21 00:44:26;;;;;;;3.40;1.70;;;;;;;;;;5098032;27;20054;-79
2024/04/21 00:46:52;;;;;;;4.03;1.48;;;;;;;;;;5124008;27;20053;-78
2024/04/21 00:49:18;;;;;;;3.13;1.40;;;;;;;;;;5136032;27;20001;-80
2024/04/21 00:51:43;;;;;;;3.00;1.52;;;;;;;;;;5125515;27;20338;-79
2024/04/21 00:54:10;;;;;;;3.45;1.40;;;;;;;;;;5125215;27;20005;-78
2024/04/21 00:56:35;;;;;;;3.20;1.80;;;;;;;;;;5122724;27;20010;-77
2024/04/21 00:59:01;;;;;;;4.13;1.42;;;;;;;;;;5124332;27;20005;-79
2024/04/21 01:01:27;;;;;;;2.95;1.40;;;;;;;;;;5124027;27;20005;-78
2024/04/21 01:03:52;;;;;;;2.60;1.33;;;;;;;;;;5071432;27;20009;-77
2024/04/21 01:06:19;;;;;;;3.33;1.50;;;;;;;;;;5097981;27;20009;-78
2024/04/21 01:08:44;;;;;;;3.30;1.50;;;;;;;;;;5149107;27;20379;-78
2024/04/21 01:11:18;;;;;;;4.70;2.38;;;;;;;;;;5121882;27;20019;-79
2024/04/21 01:13:44;;;;;;;3.28;1.65;;;;;;;;;;5121204;27;20005;-78
2024/04/21 01:16:10;;;;;;;4.28;1.70;;;;;;;;;;5148809;27;20029;-78
2024/04/21 01:18:36;;;;;;;3.55;1.70;;;;;;;;;;5119606;27;20001;-79
2024/04/21 01:21:02;;;;;;;3.75;2.00;;;;;;;;;;5093990;27;20080;-79
2024/04/21 01:23:27;;;;;;;3.22;1.45;;;;;;;;;;5093398;27;20001;-80
2024/04/21 01:25:53;;;;;;;3.78;1.80;;;;;;;;;;5094338;27;20001;-77
2024/04/21 01:28:19;;;;;;;3.05;1.52;;;;;;;;;;5148531;27;20017;-79
2024/04/21 01:30:44;;;;;;;2.97;1.60;;;;;;;;;;5148601;27;20005;-80
2024/04/21 01:33:10;;;;;;;3.05;1.58;;;;;;;;;;5092159;28;20030;-80
2024/04/21 01:35:36;;;;;;;3.20;1.77;;;;;;;;;;5119420;27;20013;-80
2024/04/21 01:38:02;;;;;;;4.63;1.98;;;;;;;;;;5091781;28;20085;-78
2024/04/21 01:40:27;;;;;;;3.63;1.95;;;;;;;;;;5090323;28;20018;-80
2024/04/21 01:42:53;;;;;;;3.95;2.00;;;;;;;;;;5090358;28;20034;-80
2024/04/21 01:45:18;;;;;;;3.35;1.75;;;;;;;;;;5090828;28;20018;-80
2024/04/21 01:47:44;;;;;;;3.53;2.05;;;;;;;;;;5091148;28;20006;-80
2024/04/21 01:50:12;;;;;;;4.60;2.20;;;;;;;;;;5115973;27;20457;-80
2024/04/21 01:52:38;;;;;;;4.82;2.00;;;;;;;;;;5131342;27;20021;-80
2024/04/21 01:55:04;;;;;;;4.32;1.90;;;;;;;;;;5133051;27;19997;-81
2024/04/21 01:57:30;;;;;;;3.60;2.08;;;;;;;;;;5105604;27;20013;-79
2024/04/21 01:59:55;;;;;;;4.38;2.22;;;;;;;;;;5134596;27;20016;-79
2024/04/21 02:02:21;;;;;;;4.35;1.85;;;;;;;;;;5159755;27;20020;-81
2024/04/21 02:04:46;;;;;;;3.60;2.13;;;;;;;;;;5125994;27;20025;-80
2024/04/21 02:07:12;;;;;;;4.68;2.38;;;;;;;;;;5125198;27;20029;-79
2024/04/21 02:09:38;;;;;;;3.42;1.90;;;;;;;;;;5126605;27;20005;-79
2024/04/21 02:12:04;;;;;;;5.45;2.45;;;;;;;;;;5154332;27;20058;-78
2024/04/21 02:14:29;;;;;;;3.83;2.15;;;;;;;;;;5129825;27;20015;-80
2024/04/21 02:16:55;;;;;;;3.63;2.20;;;;;;;;;;5104579;27;20001;-81
2024/04/21 02:19:20;;;;;;;5.13;1.98;;;;;;;;;;5101729;27;20013;-79
2024/04/21 02:21:46;;;;;;;4.00;2.15;;;;;;;;;;5153301;27;20013;-78
2024/04/21 02:24:11;;;;;;;6.90;3.20;;;;;;;;;;5102518;27;20063;-80
2024/04/21 02:26:38;;;;;;;5.15;2.45;;;;;;;;;;5128321;27;20028;-79
2024/04/21 02:29:04;;;;;;;4.45;2.10;;;;;;;;;;5130663;27;20350;-80
2024/04/21 02:31:29;;;;;;;4.88;2.38;;;;;;;;;;5132560;27;19999;-81
2024/04/21 02:33:55;;;;;;;4.90;2.17;;;;;;;;;;5102168;27;20005;-80
2024/04/21 02:36:21;;;;;;;5.05;1.88;;;;;;;;;;5155224;27;20002;-80
2024/04/21 02:38:46;;;;;;;4.63;2.08;;;;;;;;;;5153871;27;20009;-78
2024/04/21 02:41:12;;;;;;;4.35;1.92;;;;;;;;;;5128759;27;20361;-80
2024/04/21 02:43:38;;;;;;;4.05;2.00;;;;;;;;;;5143767;27;20010;-80
2024/04/21 02:46:04;;;;;;;4.43;1.83;;;;;;;;;;5132013;27;20342;-80
2024/04/21 02:48:32;;;;;;;3.50;1.70;;;;;;;;;;5131251;27;20009;-80
2024/04/21 02:50:58;;;;;;;4.55;2.10;;;;;;;;;;5132255;27;20005;-78
2024/04/21 02:53:23;;;;;;;4.82;2.40;;;;;;;;;;5108959;27;20350;-79
2024/04/21 02:55:49;;;;;;;4.32;2.08;;;;;;;;;;5109827;27;20009;-79
2024/04/21 02:58:14;;;;;;;4.25;2.22;;;;;;;;;;5136016;27;20033;-81
2024/04/21 03:00:40;;;;;;;4.43;1.92;;;;;;;;;;5108888;27;20005;-79
2024/04/21 03:03:06;;;;;;;5.72;2.05;;;;;;;;;;5135664;27;20045;-79
2024/04/21 03:05:31;;;;;;;3.92;2.20;;;;;;;;;;5163404;27;20017;-78
2024/04/21 03:07:57;;;;;;;6.90;2.20;;;;;;;;;;5164280;27;20055;-79
2024/04/21 03:10:23;;;;;;;4.25;2.28;;;;;;;;;;5136082;27;20001;-79
2024/04/21 03:12:49;;;;;;;4.25;2.35;;;;;;;;;;5136489;27;19997;-78
2024/04/21 03:15:14;;;;;;;5.22;2.30;;;;;;;;;;5134161;27;20037;-79
2024/04/21 03:17:40;;;;;;;5.18;2.50;;;;;;;;;;5158178;27;20029;-78
2024/04/21 03:20:06;;;;;;;4.32;2.60;;;;;;;;;;5125472;27;20012;-79
2024/04/21 03:22:32;;;;;;;4.63;2.40;;;;;;;;;;5097091;27;20009;-80
2024/04/21 03:24:59;;;;;;;4.47;2.40;;;;;;;;;;5096389;27;20005;-78
2024/04/21 03:27:25;;;;;;;5.00;2.47;;;;;;;;;;5067944;27;20005;-78
2024/04/21 03:29:51;;;;;;;5.35;2.55;;;;;;;;;;5122473;27;20005;-80
2024/04/21 03:32:17;;;;;;;6.28;3.55;;;;;;;;;;5121270;27;20020;-79
2024/04/21 03:34:51;;;;;;;4.93;2.70;;;;;;;;;;5121940;27;20019;-79
2024/04/21 03:37:18;;;;;;;6.40;2.95;;;;;;;;;;5120892;27;20085;-79
2024/04/21 03:39:44;;;;;;;4.60;2.58;;;;;;;;;;5146827;27;20345;-79
2024/04/21 03:42:10;;;;;;;5.10;2.80;;;;;;;;;;5121022;27;20005;-78
2024/04/21 03:44:36;;;;;;;4.53;2.58;;;;;;;;;;5117696;27;20029;-78
2024/04/21 03:47:02;;;;;;;4.90;2.75;;;;;;;;;;5121162;28;20006;-79
2024/04/21 03:49:27;;;;;;;4.47;2.78;;;;;;;;;;5068886;28;20020;-79
2024/04/21 03:51:53;;;;;;;5.18;2.70;;;;;;;;;;5071068;28;20020;-80
2024/04/21 03:54:18;;;;;;;5.05;2.30;;;;;;;;;;5100867;28;20013;-79
2024/04/21 03:56:44;;;;;;;3.90;2.17;;;;;;;;;;5126597;28;20049;-79
2024/04/21 03:59:10;;;;;;;4.78;1.90;;;;;;;;;;5099449;28;20002;-80
2024/04/21 04:01:36;;;;;;;5.93;2.50;;;;;;;;;;5066023;28;20010;-79
2024/04/21 04:04:01;;;;;;;3.72;2.10;;;;;;;;;;5091152;27;20016;-79
2024/04/21 04:06:28;;;;;;;3.85;2.10;;;;;;;;;;5102091;27;20001;-78
2024/04/21 04:08:56;;;;;;;6.50;2.30;;;;;;;;;;5099920;27;20089;-77
2024/04/21 04:11:21;;;;;;;4.55;2.53;;;;;;;;;;5122148;27;20058;-80
2024/04/21 04:13:47;;;;;;;4.80;2.22;;;;;;;;;;5122313;27;20025;-80
2024/04/21 04:16:13;;;;;;;3.97;2.03;;;;;;;;;;5097050;27;20009;-79
2024/04/21 04:18:38;;;;;;;4.38;2.47;;;;;;;;;;5149213;27;20017;-79
2024/04/21 04:21:04;;;;;;;5.80;2.80;;;;;;;;;;5094459;27;20016;-79
2024/04/21 04:23:29;;;;;;;5.63;2.40;;;;;;;;;;5121498;27;20011;-80
2024/04/21 04:25:55;;;;;;;6.50;2.80;;;;;;;;;;5095959;27;20750;-79
2024/04/21 04:28:22;;;;;;;5.75;2.80;;;;;;;;;;5121212;27;20005;-79
2024/04/21 04:30:47;;;;;;;4.78;2.92;;;;;;;;;;5089655;28;20016;-79
2024/04/21 04:33:13;;;;;;;4.88;2.90;;;;;;;;;;5064365;28;20478;-79
2024/04/21 04:35:38;;;;;;;5.95;2.67;;;;;;;;;;5066539;28;20017;-78
2024/04/21 04:38:04;;;;;;;4.43;2.63;;;;;;;;;;5066252;28;20002;-79
2024/04/21 04:40:29;;;;;;;8.35;3.35;;;;;;;;;;5041146;28;20024;-79
2024/04/21 04:42:56;;;;;;;4.80;2.80;;;;;;;;;;5067560;28;20458;-77
2024/04/21 04:45:22;;;;;;;5.40;3.20;;;;;;;;;;5077569;27;20010;-78
2024/04/21 04:47:47;;;;;;;5.60;2.92;;;;;;;;;;5130856;27;20458;-79
2024/04/21 04:50:13;;;;;;;6.63;3.10;;;;;;;;;;5158942;27;20005;-79
2024/04/21 04:52:38;;;;;;;5.72;3.13;;;;;;;;;;5156770;27;20016;-78
2024/04/21 04:55:04;;;;;;;5.50;3.30;;;;;;;;;;5158786;27;20015;-79
2024/04/21 04:57:30;;;;;;;7.07;4.10;;;;;;;;;;5129657;27;20084;-79
2024/04/21 04:59:55;;;;;;;5.80;3.28;;;;;;;;;;5128698;27;20006;-77
2024/04/21 05:02:21;;;;;;;6.10;3.08;;;;;;;;;;5151966;27;20001;-77
2024/04/21 05:04:47;;;;;;;4.68;3.03;;;;;;;;;;5150170;27;20045;-77
2024/04/21 05:07:12;;;;;;;6.28;3.03;;;;;;;;;;5096296;27;20011;-78
2024/04/21 05:09:38;;;;;;;5.90;3.00;;;;;;;;;;5150318;27;20459;-77
2024/04/21 05:12:03;;;;;;;5.53;2.65;;;;;;;;;;5098947;27;20001;-76
2024/04/21 05:14:29;;;;;;;4.47;2.70;;;;;;;;;;5123133;27;20406;-78
2024/04/21 05:16:54;;;;;;;5.10;2.90;;;;;;;;;;5148230;27;20013;-78
2024/04/21 05:19:20;;;;;;;4.03;2.45;;;;;;;;;;5121474;27;20370;-78
2024/04/21 05:21:46;;;;;;;5.20;2.92;;;;;;;;;;5121345;27;20365;-78
2024/04/21 05:24:11;;;;;;;4.38;2.63;;;;;;;;;;5095492;27;20005;-79
2024/04/21 05:26:37;;;;;;;4.35;2.47;;;;;;;;;;5120743;27;20001;-79
2024/04/21 05:29:02;;;;;;;5.25;2.47;;;;;;;;;;5150394;27;20157;-79
2024/04/21 05:31:28;;;;;;;4.93;2.20;;;;;;;;;;5147926;27;20009;-79
2024/04/21 05:33:53;;;;;;;5.47;2.55;;;;;;;;;;5148802;27;20081;-78
2024/04/21 05:36:19;;;;;;;4.60;2.30;;;;;;;;;;5121412;27;20020;-78
2024/04/21 05:38:45;;;;;;;4.10;2.25;;;;;;;;;;5122398;27;20357;-79
2024/04/21 05:41:10;;;;;;;3.83;2.30;;;;;;;;;;5121187;27;20084;-79
2024/04/21 05:43:36;;;;;;;5.10;2.00;;;;;;;;;;5120617;27;20016;-78
2024/04/21 05:46:02;;;;;;;4.97;2.30;;;;;;;;;;5147954;27;20461;-78
2024/04/21 05:48:28;;;;;;;4.15;2.58;;;;;;;;;;5095446;27;20004;-79
2024/04/21 05:50:53;;;;;;;5.25;2.38;;;;;;;;;;5122544;27;20001;-78
2024/04/21 05:53:19;;;;;;;5.78;2.63;;;;;;;;;;5097597;27;20009;-77
2024/04/21 05:55:45;;;;;;;4.60;2.80;;;;;;;;;;5125341;27;20001;-79
2024/04/21 05:58:11;;;;;;;5.70;2.67;;;;;;;;;;5095766;27;20001;-78
2024/04/21 06:00:36;;;;;;;4.80;2.60;;;;;;;;;;5121902;27;20001;-79
2024/04/21 06:03:02;;;;;;;6.43;3.13;;;;;;;;;;5095647;27;20483;-79
2024/04/21 06:05:28;;;;;;;7.22;3.63;;;;;;;;;;5115172;28;20030;-79
2024/04/21 06:07:53;;;;;;;6.88;3.22;;;;;;;;;;5091295;28;20481;-78
2024/04/21 06:10:19;;;;;;;5.82;2.90;;;;;;;;;;5096407;28;20570;-78
2024/04/21 06:12:44;;;;;;;7.35;2.90;;;;;;;;;;5093180;28;20018;-79
2024/04/21 06:15:10;;;;;;;5.20;3.03;;;;;;;;;;5091572;28;20009;-78
2024/04/21 06:17:39;;;;;;;5.45;2.70;;;;;;;;;;5089178;28;20366;-79
2024/04/21 06:20:05;;;;;;;5.00;2.80;;;;;;;;;;5062465;28;20006;-79
2024/04/21 06:22:30;;;;;;;7.10;2.75;;;;;;;;;;5142046;27;20009;-79
2024/04/21 06:24:56;;;;;;;4.90;2.53;;;;;;;;;;5127672;27;20001;-81
2024/04/21 06:27:21;;;;;;;6.45;2.72;;;;;;;;;;5155773;27;19998;-79
2024/04/21 06:29:47;;;;;;;4.90;2.70;;;;;;;;;;5130396;27;20458;-79
2024/04/21 06:32:12;;;;;;;5.20;2.80;;;;;;;;;;5155615;27;20021;-79
2024/04/21 06:34:38;;;;;;;4.30;2.80;;;;;;;;;;5161041;27;20029;-78
2024/04/21 06:37:04;;;;;;;8.15;2.70;;;;;;;;;;5133388;27;20005;-77
2024/04/21 06:39:29;;;;;;;4.97;2.97;;;;;;;;;;5133843;27;20015;-79
2024/04/21 06:41:55;;;;;;;5.40;2.58;;;;;;;;;;5080438;27;20356;-78
2024/04/21 06:44:21;;;;;;;5.13;2.97;;;;;;;;;;5133167;27;20437;-80
2024/04/21 06:46:46;;;;;;;6.53;3.50;;;;;;;;;;5129851;27;20082;-78
2024/04/21 06:49:12;;;;;;;6.50;3.58;;;;;;;;;;5151989;27;20013;-78
2024/04/21 06:51:37;;;;;;;5.47;3.00;;;;;;;;;;5151203;27;20011;-79
2024/04/21 06:54:03;;;;;;;6.68;3.28;;;;;;;;;;5096978;27;20021;-79
2024/04/21 06:56:29;;;;;;;6.63;3.60;;;;;;;;;;5097199;27;20607;-79
2024/04/21 06:58:54;;;;;;;8.77;3.75;;;;;;;;;;5122601;27;20077;-79
2024/04/21 07:01:20;;;;;;;6.22;3.58;;;;;;;;;;5097038;27;20010;-79
2024/04/21 07:03:45;;;;;;;6.25;3.55;;;;;;;;;;5096173;27;20349;-80
2024/04/21 07:06:11;;;;;;;8.43;4.43;;;;;;;;;;5121968;27;20028;-78
2024/04/21 07:08:37;;;;;;;7.05;3.55;;;;;;;;;;5121398;27;20473;-78
2024/04/21 07:11:04;;;;;;;6.90;3.65;;;;;;;;;;5120293;27;20015;-76
2024/04/21 07:13:30;;;;;;;6.40;3.15;;;;;;;;;;5120704;27;20480;-79
2024/04/21 07:15:56;;;;;;;7.03;3.00;;;;;;;;;;5119096;27;20013;-78
2024/04/21 07:18:21;;;;;;;7.13;3.53;;;;;;;;;;5094386;27;20016;-78
2024/04/21 07:20:47;;;;;;;9.00;3.58;;;;;;;;;;5094324;27;20016;-80
2024/04/21 07:23:12;;;;;;;6.78;3.72;;;;;;;;;;5091630;27;20005;-78
2024/04/21 07:25:38;;;;;;;5.75;3.00;;;;;;;;;;5067074;27;20085;-77
2024/04/21 07:28:04;;;;;;;7.20;3.92;;;;;;;;;;5094675;27;20012;-80
2024/04/21 07:30:29;;;;;;;6.43;3.03;;;;;;;;;;5098301;27;20013;-80
2024/04/21 07:32:55;;;;;;;6.72;3.70;;;;;;;;;;5095552;27;20013;-79
2024/04/21 07:35:21;;;;;;;7.07;3.30;;;;;;;;;;5068964;27;20085;-81
2024/04/21 07:37:47;;;;;;;6.03;3.42;;;;;;;;;;5100466;27;20001;-79
2024/04/21 07:40:16;;;;;;;7.30;3.58;;;;;;;;;;5156807;27;20020;-79
2024/04/21 07:42:42;;;;;;;6.03;3.25;;;;;;;;;;5096362;27;20020;-80
2024/04/21 07:45:08;;;;;;;6.72;3.67;;;;;;;;;;5095851;27;20005;-80
2024/04/21 07:47:34;;;;;;;6.03;3.20;;;;;;;;;;5148059;27;20341;-78
2024/04/21 07:50:01;;;;;;;10.88;3.65;;;;;;;;;;5092097;27;20012;-79
2024/04/21 07:52:27;;;;;;;6.90;3.58;;;;;;;;;;5094538;27;20008;-78
2024/04/21 07:54:55;;;;;;;7.57;3.35;;;;;;;;;;5094548;27;20017;-80
2024/04/21 07:57:21;;;;;;;7.25;2.90;;;;;;;;;;5095037;27;20014;-79
2024/04/21 07:59:47;;;;;;;5.28;2.83;;;;;;;;;;5095247;27;20020;-78
2024/04/21 08:02:12;;;;;;;6.32;3.42;;;;;;;;;;5117473;27;20005;-79
2024/04/21 08:04:38;;;;;;;7.75;3.42;;;;;;;;;;5117182;27;20153;-78
2024/04/21 08:07:03;;;;;;;9.88;3.88;;;;;;;;;;5102627;27;20024;-77
2024/04/21 08:09:29;;;;;;;6.63;3.35;;;;;;;;;;5117257;27;20005;-80
2024/04/21 08:11:55;;;;;;;7.88;3.40;;;;;;;;;;5091005;27;20020;-80
2024/04/21 08:14:20;;;;;;;5.85;3.10;;;;;;;;;;5084473;27;20009;-79
2024/04/21 08:16:46;;;;;;;6.85;3.33;;;;;;;;;;5121803;27;20062;-80
2024/04/21 08:19:11;;;;;;;7.97;3.65;;;;;;;;;;5110407;27;20009;-78
2024/04/21 08:21:37;;;;;;;6.22;3.22;;;;;;;;;;5132007;27;20014;-77
2024/04/21 08:24:03;;;;;;;5.90;2.95;;;;;;;;;;5113416;27;20085;-77
2024/04/21 08:26:28;;;;;;;5.45;2.95;;;;;;;;;;5136093;27;20021;-78
2024/04/21 08:28:54;;;;;;;5.68;3.15;;;;;;;;;;5136488;27;20036;-76
2024/04/21 08:31:19;;;;;;;6.93;3.20;;;;;;;;;;5102233;28;20014;-76
2024/04/21 08:33:45;;;;;;;9.93;3.28;;;;;;;;;;5139833;27;20013;-77
2024/04/21 08:36:11;;;;;;;7.90;3.13;;;;;;;;;;5107350;27;20108;-76
2024/04/21 08:38:36;;;;;;;6.30;2.88;;;;;;;;;;5111605;27;20015;-78
2024/04/21 08:41:11;;;;;;;5.28;3.00;;;;;;;;;;5133444;27;20016;-76
2024/04/21 08:43:38;;;;;;;4.72;2.70;;;;;;;;;;5145024;27;20005;-77
2024/04/21 08:46:04;;;;;;;5.75;2.88;;;;;;;;;;5111166;27;20024;-77
2024/04/21 08:48:30;;;;;;;3.83;2.17;;;;;;;;;;5089990;27;20005;-77
2024/04/21 08:50:56;;;;;;;5.22;2.58;;;;;;;;;;5130268;27;20021;-76
2024/04/21 08:53:22;;;;;;;4.32;2.20;;;;;;;;;;5115290;27;20024;-76
2024/04/21 08:55:48;;;;;;;5.68;2.45;;;;;;;;;;5106469;27;20001;-77
2024/04/21 08:58:15;;;;;;;6.93;2.42;;;;;;;;;;5118888;27;20009;-78
2024/04/21 09:00:40;;;;;;;5.50;2.40;;;;;;;;;;5108709;27;20020;-78
2024/04/21 09:03:06;;;;;;;5.45;2.25;;;;;;;;;;5122472;27;20479;-81
2024/04/21 09:05:32;;;;;;;4.65;2.20;;;;;;;;;;5122611;27;20028;-77
2024/04/21 09:07:58;;;;;;;4.03;2.42;;;;;;;;;;5096427;27;20013;-78
2024/04/21 09:10:27;;;;;;;5.07;2.60;;;;;;;;;;5132146;27;20005;-77
2024/04/21 09:12:53;;;;;;;4.32;2.20;;;;;;;;;;5118585;27;20348;-77
2024/04/21 09:15:19;;;;;;;5.38;2.53;;;;;;;;;;5149354;27;20005;-77
2024/04/21 09:17:45;;;;;;;9.40;3.00;;;;;;;;;;5146407;27;20019;-78
2024/04/21 09:20:11;;;;;;;7.93;3.10;;;;;;;;;;5123100;27;20081;-77
2024/04/21 09:22:37;;;;;;;7.43;2.67;;;;;;;;;;5149703;27;20005;-78
2024/04/21 09:25:03;;;;;;;5.93;3.08;;;;;;;;;;5150479;27;20094;-78
2024/04/21 09:27:29;;;;;;;7.90;2.53;;;;;;;;;;5119403;27;20024;-78
2024/04/21 09:29:57;;;;;;;6.55;2.38;;;;;;;;;;5120475;27;20525;-78
2024/04/21 09:32:23;;;;;;;5.55;2.40;;;;;;;;;;5121468;27;20041;-78
2024/04/21 09:34:49;;;;;;;4.03;2.30;;;;;;;;;;5120062;27;20089;-78
2024/04/21 09:37:18;;;;;;;5.57;2.75;;;;;;;;;;5147243;27;20005;-78
2024/04/21 09:39:47;;;;;;;5.88;2.88;;;;;;;;;;5110135;27;20005;-77
2024/04/21 09:42:17;;;;;;;5.85;2.63;;;;;;;;;;5121361;27;20001;-77
2024/04/21 09:44:44;;;;;;;5.72;2.75;;;;;;;;;;5135061;27;20009;-77
2024/04/21 09:47:16;;;;;;;5.85;2.65;;;;;;;;;;5134794;27;20020;-80
2024/04/21 09:49:42;;;;;;;4.13;2.30;;;;;;;;;;5118331;27;20005;-80
2024/04/21 09:52:08;;;;;;;6.38;2.80;;;;;;;;;;5070313;27;20020;-82
2024/04/21 09:54:34;;;;;;;7.50;2.80;;;;;;;;;;5125078;27;20029;-83
2024/04/21 09:57:10;;;;;;;9.25;2.42;;;;;;;;;;5145013;27;20019;-78
2024/04/21 09:59:37;;;;;;;5.82;2.85;;;;;;;;;;5118812;27;20081;-80
2024/04/21 10:02:12;;;;;;;7.25;3.00;;;;;;;;;;5119019;27;20084;-80
2024/04/21 10:04:39;;;;;;;6.78;3.25;;;;;;;;;;5126568;27;20016;-80
2024/04/21 10:07:05;;;;;;;8.30;3.55;;;;;;;;;;5093949;27;20053;-81
2024/04/21 10:09:31;;;;;;;8.68;3.22;;;;;;;;;;5120292;27;20006;-82
2024/04/21 10:11:57;;;;;;;4.82;2.70;;;;;;;;;;5148012;27;20013;-80
2024/04/21 10:14:23;;;;;;;7.05;2.78;;;;;;;;;;5116642;27;20089;-80
2024/04/21 10:16:49;;;;;;;5.55;2.50;;;;;;;;;;5094053;27;20033;-80
2024/04/21 10:19:21;;;;;;;6.25;2.92;;;;;;;;;;5113960;28;20458;-81
2024/04/21 10:21:46;;;;;;;5.05;2.38;;;;;;;;;;5115959;28;20017;-80
2024/04/21 10:24:12;;;;;;;6.90;3.25;;;;;;;;;;5144105;27;20450;-80
2024/04/21 10:26:38;;;;;;;6.20;2.95;;;;;;;;;;5116173;27;20009;-79
2024/04/21 10:29:07;;;;;;;5.22;2.63;;;;;;;;;;5145767;27;20345;-79
2024/04/21 10:31:33;;;;;;;6.40;2.38;;;;;;;;;;5143577;27;20020;-81
2024/04/21 10:34:11;;;;;;;4.75;2.45;;;;;;;;;;5114104;27;20465;-79
2024/04/21 10:36:40;;;;;;;7.70;2.60;;;;;;;;;;5112990;27;20005;-81
2024/04/21 10:39:06;;;;;;;8.10;2.47;;;;;;;;;;5088962;27;20006;-79
2024/04/21 10:41:36;;;;;;;5.15;2.25;;;;;;;;;;5140971;27;20488;-82
2024/04/21 10:44:02;;;;;;;4.78;2.40;;;;;;;;;;5114177;27;20001;-81
2024/04/21 10:46:30;;;;;;;5.85;2.30;;;;;;;;;;5066750;27;20009;-81
2024/04/21 10:48:56;;;;;;;7.45;2.10;;;;;;;;;;5146501;27;20076;-80
2024/04/21 10:51:23;;;;;;;4.32;2.22;;;;;;;;;;5106448;27;20009;-80
2024/04/21 10:53:48;;;;;;;5.15;2.20;;;;;;;;;;5093156;27;19998;-81
2024/04/21 10:56:14;;;;;;;5.65;2.50;;;;;;;;;;5121322;27;20013;-80
2024/04/21 10:58:39;;;;;;;8.23;2.65;;;;;;;;;;5151108;27;20005;-81
2024/04/21 11:01:07;;;;;;;7.85;1.85;;;;;;;;;;5151861;27;20016;-81
2024/04/21 11:03:32;;;;;;;7.97;2.85;;;;;;;;;;5127091;27;20469;-79
2024/04/21 11:05:58;;;;;;;6.25;2.63;;;;;;;;;;5122718;28;20010;-81
2024/04/21 11:08:24;;;;;;;17.60;2.80;;;;;;;;;;5100500;27;20036;-81
2024/04/21 11:10:50;;;;;;;4.47;2.20;;;;;;;;;;5156437;27;20009;-81
2024/04/21 11:13:16;;;;;;;5.22;2.10;;;;;;;;;;5104033;27;20407;-81
2024/04/21 11:15:42;;;;;;;5.20;2.10;;;;;;;;;;5157597;27;20005;-81
2024/04/21 11:18:08;;;;;;;14.85;3.80;;;;;;;;;;5129972;27;20004;-79
2024/04/21 11:20:34;;;;;;;12.77;3.15;;;;;;;;;;5156739;27;20005;-81
2024/04/21 11:23:00;;;;;;;5.03;1.98;;;;;;;;;;5076980;27;20001;-81
2024/04/21 11:25:25;;;;;;;5.30;1.85;;;;;;;;;;5128221;27;20449;-81
2024/04/21 11:27:51;;;;;;;4.95;2.20;;;;;;;;;;5129406;27;20083;-81
2024/04/21 11:30:21;;;;;;;5.15;2.00;;;;;;;;;;5099308;27;20346;-80
2024/04/21 11:32:47;;;;;;;5.85;2.08;;;;;;;;;;5097685;27;20013;-79
2024/04/21 11:35:17;;;;;;;8.25;2.25;;;;;;;;;;5150344;27;20009;-80
2024/04/21 11:37:44;;;;;;;5.03;1.92;;;;;;;;;;5121322;27;20022;-79
2024/04/21 11:40:09;;;;;;;8.02;1.83;;;;;;;;;;5095546;28;20045;-79
2024/04/21 11:42:35;;;;;;;7.18;3.15;;;;;;;;;;5098991;28;20034;-81
2024/04/21 11:45:01;;;;;;;6.30;2.05;;;;;;;;;;5120484;28;20485;-81
2024/04/21 11:47:28;;;;;;;5.72;2.10;;;;;;;;;;5118799;28;20009;-80
2024/04/21 11:49:53;;;;;;;4.80;2.20;;;;;;;;;;5094209;28;20450;-81
2024/04/21 11:52:20;;;;;;;4.40;1.85;;;;;;;;;;5095138;28;20474;-80
2024/04/21 11:54:45;;;;;;;4.18;1.77;;;;;;;;;;5113315;27;20005;-80
2024/04/21 11:57:11;;;;;;;5.60;2.25;;;;;;;;;;5098324;27;20015;-81
2024/04/21 11:59:36;;;;;;;4.43;1.90;;;;;;;;;;5060886;28;20014;-80
2024/04/21 12:02:02;;;;;;;4.38;1.67;;;;;;;;;;5123855;27;20005;-80
2024/04/21 12:04:28;;;;;;;5.43;2.08;;;;;;;;;;5152857;27;20445;-80
2024/04/21 12:06:55;;;;;;;5.32;3.17;;;;;;;;;;5128436;27;20005;-81
2024/04/21 12:09:20;;;;;;;2.83;1.55;;;;;;;;;;5133622;27;20014;-81
2024/04/21 12:11:46;;;;;;;5.40;2.20;;;;;;;;;;5118179;27;20458;-80
2024/04/21 12:14:25;;;;;;;4.10;2.10;;;;;;;;;;5120781;27;20009;-79
2024/04/21 12:16:51;;;;;;;5.90;2.00;;;;;;;;;;5094978;27;20016;-80
2024/04/21 12:19:17;;;;;;;5.30;1.95;;;;;;;;;;5136665;27;20075;-79
2024/04/21 12:21:42;;;;;;;5.45;2.00;;;;;;;;;;5107614;28;20017;-82
2024/04/21 12:24:08;;;;;;;5.40;2.20;;;;;;;;;;5149131;27;20065;-80
2024/04/21 12:26:33;;;;;;;4.05;1.75;;;;;;;;;;5094496;27;20002;-81
2024/04/21 12:28:59;;;;;;;6.07;2.42;;;;;;;;;;5119360;27;20005;-81
2024/04/21 12:31:25;;;;;;;5.72;2.00;;;;;;;;;;5070574;27;20017;-81
2024/04/21 12:33:52;;;;;;;3.92;1.60;;;;;;;;;;5099226;27;20024;-80
2024/04/21 12:36:17;;;;;;;4.88;1.70;;;;;;;;;;5090213;27;20013;-80
2024/04/21 12:38:43;;;;;;;5.22;2.08;;;;;;;;;;5102613;27;20019;-81
2024/04/21 12:41:09;;;;;;;5.10;2.05;;;;;;;;;;5096188;27;20029;-81
2024/04/21 12:43:34;;;;;;;3.92;1.80;;;;;;;;;;5117727;27;20017;-79
2024/04/21 12:46:00;;;;;;;9.15;2.47;;;;;;;;;;5107932;27;20019;-81
2024/04/21 12:48:26;;;;;;;6.53;1.90;;;;;;;;;;5095253;27;20615;-81
2024/04/21 12:50:52;;;;;;;4.63;2.13;;;;;;;;;;5131557;27;20085;-81
2024/04/21 12:53:18;;;;;;;5.68;2.17;;;;;;;;;;5094758;27;20009;-79
2024/04/21 12:55:44;;;;;;;5.13;2.05;;;;;;;;;;5121441;27;20005;-82
2024/04/21 12:58:10;;;;;;;9.82;2.03;;;;;;;;;;5095235;27;20085;-81
2024/04/21 13:00:36;;;;;;;4.95;2.40;;;;;;;;;;5107399;27;20002;-82
2024/04/21 13:03:02;;;;;;;6.07;2.50;;;;;;;;;;5120569;27;20020;-82
2024/04/21 13:05:28;;;;;;;4.25;1.70;;;;;;;;;;5093932;27;20005;-82
2024/04/21 13:07:54;;;;;;;5.72;1.52;;;;;;;;;;5154414;27;20016;-80
2024/04/21 13:10:19;;;;;;;6.53;2.03;;;;;;;;;;5090161;28;20359;-81
2024/04/21 13:12:45;;;;;;;5.70;2.00;;;;;;;;;;5111584;27;20017;-82
2024/04/21 13:15:11;;;;;;;7.18;3.55;;;;;;;;;;5120567;27;20013;-82
2024/04/21 13:17:37;;;;;;;4.60;2.10;;;;;;;;;;5095819;28;20406;-82
2024/04/21 13:20:03;;;;;;;4.40;1.92;;;;;;;;;;5118743;27;20005;-83
2024/04/21 13:22:29;;;;;;;4.88;1.63;;;;;;;;;;5091908;27;20021;-81
2024/04/21 14:31:41;;;;;;;5.97;1.35;;;;;;;;;;5161932;27;20020;-79
2024/04/21 14:34:07;;;;;;;5.47;1.80;;;;;;;;;;5147083;27;20065;-80
2024/04/21 14:36:34;;;;;;;3.17;1.20;;;;;;;;;;5172803;27;20408;-81
2024/04/21 14:39:21;;;;;;;6.13;1.40;;;;;;;;;;5172583;27;20016;-80
2024/04/21 14:41:47;;;;;;;3.75;1.63;;;;;;;;;;5136282;27;20020;-80
2024/04/21 14:44:13;;;;;;;4.43;1.60;;;;;;;;;;5197123;22;20017;-82
2024/04/21 14:46:44;;;;;;;5.00;1.90;;;;;;;;;;5070034;27;20361;-81
2024/04/21 14:49:11;;;;;;;5.82;1.60;;;;;;;;;;5105317;27;20016;-80
2024/04/21 14:51:38;;;;;;;4.55;1.73;;;;;;;;;;5149535;27;20040;-81
2024/04/21 14:54:04;;;;;;;4.82;1.60;;;;;;;;;;5153442;27;20017;-80
2024/04/21 14:56:30;;;;;;;4.35;1.77;;;;;;;;;;5122997;27;20025;-82
2024/04/21 14:58:56;;;;;;;3.10;1.27;;;;;;;;;;5120995;27;20013;-82
2024/04/21 15:01:22;;;;;;;8.95;1.98;;;;;;;;;;5121732;27;20019;-81
2024/04/21 15:03:48;;;;;;;5.18;1.60;;;;;;;;;;5207449;27;20013;-82
2024/04/21 15:06:15;;;;;;;4.10;1.85;;;;;;;;;;5133049;27;20017;-82
2024/04/21 15:08:41;;;;;;;5.85;1.63;;;;;;;;;;5111976;27;20459;-81
2024/04/21 15:11:07;;;;;;;4.55;1.60;;;;;;;;;;5152963;27;20020;-80
2024/04/21 15:13:32;;;;;;;7.00;3.03;;;;;;;;;;5123782;27;20009;-80
2024/04/21 15:15:58;;;;;;;4.88;1.50;;;;;;;;;;5152796;27;20371;-81
2024/04/21 15:18:23;;;;;;;7.70;1.75;;;;;;;;;;5126854;27;20008;-81
2024/04/21 15:20:49;;;;;;;4.68;1.80;;;;;;;;;;5136530;27;20424;-81
2024/04/21 15:23:15;;;;;;;5.32;1.83;;;;;;;;;;5121660;27;20019;-81
2024/04/21 15:25:42;;;;;;;4.20;1.50;;;;;;;;;;5153712;27;20086;-80
2024/04/21 15:28:07;;;;;;;4.03;1.67;;;;;;;;;;5120783;27;20463;-81
2024/04/21 15:30:33;;;;;;;4.72;1.67;;;;;;;;;;5149425;27;20036;-81
2024/04/21 15:32:59;;;;;;;2.42;1.25;;;;;;;;;;5132695;27;20013;-81
2024/04/21 15:35:25;;;;;;;2.63;1.35;;;;;;;;;;5115234;27;20024;-82
2024/04/21 15:37:50;;;;;;;4.30;1.20;;;;;;;;;;5145730;27;20357;-81
2024/04/21 15:40:18;;;;;;;2.20;1.10;;;;;;;;;;5130291;27;20079;-82
2024/04/21 15:42:45;;;;;;;5.15;1.65;;;;;;;;;;5125069;27;20012;-79